Time;durP1;ratioP1;P1;durP2;ratioP2;P2;SDS_P1;SDS_P2;PMS_P1;PMS_P2;Temp;Humidity;BMP_temperature;BMP_pressure;BME280_temperature;BME280_humidity;BME280_pressure;Samples;Min_cycle;Max_cycle;Signal;HPM_P1;HPM_P2
2021/08/28 04:41:48;;;;;;;;;9.40;9.00;;;;;16.37;55.40;98562.59;6951222;22;98487;-62
2021/08/28 04:44:54;;;;;;;;;9.00;8.40;;;;;16.50;55.58;98570.25;6142384;28;97067;-62
2021/08/28 04:47:58;;;;;;;;;9.00;9.00;;;;;16.62;55.41;98570.03;6143641;28;96529;-62
2021/08/28 04:51:01;;;;;;;;;9.00;8.60;;;;;16.71;55.24;98574.69;6123564;28;96614;-62
2021/08/28 04:54:05;;;;;;;;;9.00;9.00;;;;;16.80;54.94;98572.25;6124720;28;97791;-63
2021/08/28 04:57:10;;;;;;;;;10.00;9.50;;;;;16.82;54.68;98565.44;6128210;28;97411;-63
2021/08/28 05:00:15;;;;;;;;;9.00;9.00;;;;;16.86;54.49;98593.78;6130145;28;97134;-62
2021/08/28 05:03:37;;;;;;;;;9.50;9.00;;;;;16.94;54.22;98578.00;6156576;28;98070;-62
2021/08/28 05:06:41;;;;;;;;;8.00;7.00;;;;;16.96;54.39;98579.34;6149538;28;97489;-62
2021/08/28 05:09:47;;;;;;;;;11.00;9.25;;;;;17.03;54.31;98579.09;6146274;28;96705;-61
2021/08/28 05:12:52;;;;;;;;;13.00;10.75;;;;;17.10;53.97;98574.22;6140503;28;98070;-61
2021/08/28 05:15:56;;;;;;;;;10.00;8.00;;;;;17.14;53.75;98572.56;6130727;28;98399;-62
2021/08/28 05:18:59;;;;;;;;;10.40;9.40;;;;;17.21;53.93;98573.94;6146521;28;97527;-62
2021/08/28 05:22:03;;;;;;;;;8.00;7.00;;;;;17.28;53.72;98579.94;6147013;28;97397;-62
2021/08/28 05:25:35;;;;;;;;;8.00;7.00;;;;;17.37;53.76;98582.09;6151728;28;97319;-62
2021/08/28 05:28:40;;;;;;;;;7.00;7.00;;;;;17.46;53.84;98584.00;6147526;28;96658;-63
2021/08/28 05:31:44;;;;;;;;;6.60;6.00;;;;;17.61;53.61;98585.94;6147487;28;97581;-62
2021/08/28 05:34:51;;;;;;;;;7.50;7.00;;;;;17.77;53.64;98584.00;6141273;28;97452;-63
2021/08/28 05:38:27;;;;;;;;;8.00;8.00;;;;;17.85;53.04;98572.53;6101459;28;96666;-63
2021/08/28 05:41:31;;;;;;;;;7.00;7.00;;;;;18.13;53.34;98591.03;6141094;28;97514;-62
2021/08/28 05:44:35;;;;;;;;;8.00;6.40;;;;;18.21;52.12;98595.91;6140350;28;96731;-62
2021/08/28 05:47:38;;;;;;;;;7.75;6.00;;;;;18.29;51.79;98595.31;6146621;28;96942;-61
2021/08/28 05:50:46;;;;;;;;;8.00;7.00;;;;;18.33;51.55;98596.38;6146827;28;96468;-63
2021/08/28 05:53:49;;;;;;;;;7.00;7.00;;;;;18.41;51.27;98595.81;6146419;28;97363;-63
2021/08/28 05:56:52;;;;;;;;;7.60;7.20;;;;;18.45;51.21;98599.63;6146179;28;97476;-63
2021/08/28 05:59:57;;;;;;;;;7.00;7.00;;;;;18.55;51.03;98601.53;6146718;28;96602;-63
2021/08/28 06:03:01;;;;;;;;;7.00;7.00;;;;;18.65;51.50;98601.47;6148456;28;97498;-62
2021/08/28 06:06:04;;;;;;;;;7.60;7.40;;;;;18.78;50.97;98598.13;6146604;28;97576;-63
2021/08/28 06:09:26;;;;;;;;;7.25;7.25;;;;;18.85;50.30;98590.44;6165217;28;96927;-62
2021/08/28 06:12:48;;;;;;;;;7.60;7.00;;;;;18.88;50.07;98592.59;6147068;28;97744;-63
2021/08/28 06:16:10;;;;;;;;;6.40;6.00;;;;;18.93;50.64;98599.94;6147921;28;97041;-61
2021/08/28 06:19:14;;;;;;;;;7.00;7.00;;;;;18.98;50.41;98599.91;6147562;28;96562;-59
2021/08/28 06:22:17;;;;;;;;;7.40;7.00;;;;;18.93;50.36;98589.84;6145773;28;97392;-60
2021/08/28 06:25:21;;;;;;;;;7.00;7.00;;;;;18.98;50.11;98598.00;6145732;28;98003;-61
2021/08/28 06:28:26;;;;;;;;;7.00;7.00;;;;;19.10;50.12;98599.56;6128909;28;97268;-61
2021/08/28 06:31:31;;;;;;;;;7.60;7.40;;;;;19.31;50.33;98590.91;6144687;28;97427;-61
2021/08/28 06:34:35;;;;;;;;;6.00;6.00;;;;;19.41;49.89;98587.28;6135892;28;99870;-60
2021/08/28 06:37:38;;;;;;;;;5.00;5.00;;;;;19.72;50.03;98601.53;6147955;28;97472;-60
2021/08/28 06:41:11;;;;;;;;;5.80;5.20;;;;;20.03;48.99;98596.59;6092800;28;97372;-61
2021/08/28 06:44:33;;;;;;;;;8.00;7.40;;;;;20.36;48.40;98592.13;6163199;28;97215;-60
2021/08/28 06:47:56;;;;;;;;;5.25;5.00;;;;;20.58;47.31;98598.69;6157628;28;96569;-60
2021/08/28 06:51:19;;;;;;;;;4.20;4.20;;;;;20.77;47.43;98585.00;6152774;28;96569;-60
2021/08/28 06:54:41;;;;;;;;;5.40;5.40;;;;;21.01;47.66;98590.44;6150909;28;98728;-61
2021/08/28 06:58:03;;;;;;;;;5.00;5.00;;;;;21.15;46.66;98583.94;6162360;28;98733;-59
2021/08/28 07:01:26;;;;;;;;;5.00;5.00;;;;;21.26;46.39;98581.84;6161627;28;97665;-59
2021/08/28 07:04:56;;;;;;;;;5.00;5.00;;;;;21.45;46.40;98579.09;6152207;28;97465;-58
2021/08/28 07:08:16;;;;;;;;;4.00;3.20;;;;;21.55;45.84;98567.94;6157863;28;98015;-61
2021/08/28 07:11:19;;;;;;;;;5.75;5.00;;;;;21.94;44.78;98586.75;6145648;28;96570;-61
2021/08/28 07:14:23;;;;;;;;;4.75;4.75;;;;;22.16;44.19;98592.34;6144880;28;96682;-61
2021/08/28 07:17:26;;;;;;;;;4.40;4.00;;;;;22.26;43.75;98594.91;6162043;28;97516;-59
2021/08/28 07:20:31;;;;;;;;;6.00;5.00;;;;;22.44;43.86;98598.66;6163069;28;96673;-61
2021/08/28 07:23:34;;;;;;;;;4.00;3.00;;;;;22.70;42.19;98590.69;6147601;28;96801;-59
2021/08/28 07:27:00;;;;;;;;;4.00;4.00;;;;;22.98;42.52;98594.22;6157510;28;97517;-59
2021/08/28 07:30:24;;;;;;;;;4.00;4.00;;;;;23.19;42.12;98598.13;6163060;28;97095;-60
2021/08/28 07:33:27;;;;;;;;;5.00;4.60;;;;;23.42;40.64;98598.97;6144532;28;98441;-59
2021/08/28 07:36:32;;;;;;;;;5.60;5.00;;;;;23.62;40.60;98601.25;6163024;28;97260;-59
2021/08/28 07:39:37;;;;;;;;;4.00;4.00;;;;;23.81;40.67;98612.03;6145246;28;96619;-62
2021/08/28 07:42:41;;;;;;;;;6.00;5.00;;;;;23.84;40.15;98603.16;6166918;28;97897;-60
2021/08/28 07:45:44;;;;;;;;;5.00;5.00;;;;;24.08;40.64;98607.19;6171662;28;96671;-60
2021/08/28 07:48:53;;;;;;;;;5.00;5.00;;;;;24.19;39.07;98602.22;6167424;28;97439;-61
2021/08/28 07:51:58;;;;;;;;;6.20;6.20;;;;;24.17;39.42;98585.22;6168199;28;97712;-59
2021/08/28 07:55:01;;;;;;;;;4.00;4.00;;;;;24.39;38.97;98609.09;6157069;28;96671;-59
2021/08/28 07:58:04;;;;;;;;;3.80;3.40;;;;;24.60;37.80;98610.16;6166487;28;97142;-60
2021/08/28 08:01:11;;;;;;;;;3.25;3.25;;;;;24.88;38.10;98603.28;6163704;28;97440;-60
2021/08/28 08:04:21;;;;;;;;;3.00;3.00;;;;;25.23;36.96;98600.56;6163693;28;97408;-59
2021/08/28 08:08:04;;;;;;;;;3.00;3.00;;;;;25.49;36.16;98587.56;6086963;28;99729;-60
2021/08/28 08:11:40;;;;;;;;;2.00;2.00;;;;;25.72;36.04;98594.53;6091378;28;99635;-60
2021/08/28 08:15:01;;;;;;;;;2.20;2.20;;;;;25.80;35.47;98592.91;6143748;28;97403;-59
2021/08/28 08:18:23;;;;;;;;;2.00;2.00;;;;;26.07;35.08;98599.97;6160779;28;96955;-60
2021/08/28 08:21:45;;;;;;;;;2.60;2.60;;;;;26.33;35.92;98597.94;6167623;28;96582;-58
2021/08/28 08:25:13;;;;;;;;;4.50;3.50;;;;;26.55;34.35;98599.63;6166207;28;97438;-60
2021/08/28 08:28:45;;;;;;;;;2.00;2.00;;;;;26.74;34.02;98598.03;6143451;28;97264;-60
2021/08/28 08:32:09;;;;;;;;;3.00;3.00;;;;;26.99;33.91;98592.72;6182272;28;97430;-61
2021/08/28 08:35:20;;;;;;;;;3.00;2.00;;;;;27.05;31.94;98586.66;6142121;28;96694;-59
2021/08/28 08:38:25;;;;;;;;;3.00;3.00;;;;;27.14;32.93;98589.34;6130846;28;96979;-61
2021/08/28 08:41:31;;;;;;;;;3.00;3.00;;;;;27.44;34.18;98599.19;6147146;28;97454;-61
2021/08/28 08:44:36;;;;;;;;;4.00;3.00;;;;;27.62;32.39;98601.81;6164780;28;97568;-61
2021/08/28 08:47:40;;;;;;;;;2.00;2.00;;;;;27.73;31.63;98595.53;6148956;28;97377;-61
2021/08/28 08:50:44;;;;;;;;;3.00;3.00;;;;;27.75;30.96;98601.53;6146073;28;97476;-60
2021/08/28 08:53:50;;;;;;;;;3.00;3.00;;;;;28.00;31.97;98600.44;6146063;28;97488;-62
2021/08/28 08:56:58;;;;;;;;;4.00;4.00;;;;;28.42;32.40;98606.66;6143883;28;97472;-62
2021/08/28 09:00:02;;;;;;;;;5.00;4.00;;;;;28.84;31.08;98598.91;6145048;28;97506;-59
2021/08/28 09:03:09;;;;;;;;;5.00;5.00;;;;;29.09;31.69;98596.91;6163809;28;96689;-61
2021/08/28 09:06:14;;;;;;;;;4.80;4.80;;;;;28.95;28.62;98604.00;6148946;28;96656;-61
2021/08/28 09:09:20;;;;;;;;;5.00;5.00;;;;;29.00;29.42;98603.75;6149895;28;97568;-59
2021/08/28 09:12:36;;;;;;;;;3.00;3.00;;;;;29.04;28.68;98597.16;6148954;28;96687;-61
2021/08/28 09:15:42;;;;;;;;;3.00;3.00;;;;;29.18;29.35;98594.78;6165535;28;98525;-59
2021/08/28 09:18:51;;;;;;;;;4.00;4.00;;;;;29.13;29.16;98583.13;6165278;28;97525;-61
2021/08/28 09:21:54;;;;;;;;;4.00;2.00;;;;;29.25;29.46;98599.75;6164812;28;97485;-61
2021/08/28 09:25:00;;;;;;;;;2.00;2.00;;;;;29.40;29.18;98601.03;6164899;28;96788;-61
2021/08/28 09:28:06;;;;;;;;;3.40;3.40;;;;;29.20;29.50;98594.47;6165211;28;97499;-59
2021/08/28 09:31:09;;;;;;;;;3.40;3.00;;;;;29.01;29.21;98581.22;6147516;28;97847;-60
2021/08/28 09:34:17;;;;;;;;;4.00;4.00;;;;;29.23;28.65;98594.56;6164394;28;97008;-60
2021/08/28 09:37:30;;;;;;;;;5.00;4.00;;;;;29.25;29.18;98586.69;6161246;28;97470;-58
2021/08/28 09:40:36;;;;;;;;;2.40;2.40;;;;;29.50;29.48;98589.41;6161427;28;97456;-63
2021/08/28 09:43:41;;;;;;;;;3.80;3.00;;;;;29.58;28.36;98580.09;6165800;28;96639;-60
2021/08/28 09:46:44;;;;;;;;;3.00;3.00;;;;;30.06;29.40;98587.41;6165675;28;96778;-61
2021/08/28 09:49:54;;;;;;;;;3.00;3.00;;;;;30.32;28.79;98570.19;6164402;28;96840;-60
2021/08/28 09:53:01;;;;;;;;;3.00;3.00;;;;;30.77;27.45;98592.78;6160910;28;97445;-62
2021/08/28 09:56:07;;;;;;;;;3.00;3.00;;;;;30.92;26.92;98588.34;6147873;28;97524;-59
2021/08/28 09:59:21;;;;;;;;;2.50;2.50;;;;;30.90;26.76;98587.91;6145149;28;97476;-61
2021/08/28 10:02:25;;;;;;;;;3.00;3.00;;;;;30.94;26.55;98563.72;6163098;28;96726;-60
2021/08/28 10:05:28;;;;;;;;;4.00;3.00;;;;;31.22;26.09;98591.44;6163270;28;96685;-59
2021/08/28 10:08:33;;;;;;;;;3.00;3.00;;;;;31.31;25.82;98594.81;6162814;28;96636;-59
2021/08/28 10:11:36;;;;;;;;;3.60;3.00;;;;;30.92;26.01;98597.53;6161566;28;97663;-61
2021/08/28 10:14:41;;;;;;;;;5.00;4.00;;;;;30.79;26.32;98598.78;6164012;28;96453;-60
2021/08/28 10:17:45;;;;;;;;;3.00;3.00;;;;;30.86;25.32;98590.63;6164467;28;97998;-60
2021/08/28 10:20:49;;;;;;;;;3.00;3.00;;;;;31.22;25.89;98581.13;6163964;28;97501;-61
2021/08/28 10:23:54;;;;;;;;;3.00;3.00;;;;;30.92;25.92;98589.16;6161745;28;97327;-61
2021/08/28 10:26:57;;;;;;;;;4.00;3.00;;;;;30.85;26.53;98588.19;6162997;28;97555;-60
2021/08/28 10:30:02;;;;;;;;;3.00;3.00;;;;;31.05;25.52;98589.06;6163612;28;99102;-61
2021/08/28 10:33:05;;;;;;;;;3.00;3.00;;;;;31.12;25.57;98575.31;6163262;28;98049;-60
2021/08/28 10:36:10;;;;;;;;;2.00;2.00;;;;;31.31;25.44;98583.69;6145900;28;97509;-60
2021/08/28 10:39:14;;;;;;;;;3.50;3.00;;;;;31.56;24.41;98573.88;6162768;28;97457;-60
2021/08/28 10:42:19;;;;;;;;;21.00;20.00;;;;;31.98;24.94;98573.88;6162655;28;97139;-61
2021/08/28 10:45:29;;;;;;;;;4.00;4.00;;;;;31.90;24.26;98569.34;6160744;28;98176;-59
2021/08/28 10:48:53;;;;;;;;;3.00;2.60;;;;;31.64;24.88;98580.38;6163960;28;97058;-60
2021/08/28 10:51:58;;;;;;;;;4.00;4.00;;;;;31.45;25.30;98583.16;6136757;28;97243;-62
2021/08/28 10:55:06;;;;;;;;;3.00;2.20;;;;;30.99;25.21;98571.81;6162451;28;97074;-61
2021/08/28 10:58:13;;;;;;;;;4.00;4.00;;;;;31.26;25.48;98578.41;6127266;28;97724;-61
2021/08/28 11:01:20;;;;;;;;;2.40;2.40;;;;;31.84;26.01;98568.03;6161818;28;97083;-59
2021/08/28 11:04:35;;;;;;;;;3.00;2.60;;;;;31.93;25.10;98570.59;6143322;28;97494;-59
2021/08/28 11:07:42;;;;;;;;;3.00;3.00;;;;;32.15;25.85;98579.00;6153923;28;97331;-61
2021/08/28 11:11:20;;;;;;;;;4.00;3.60;;;;;32.03;25.40;98572.75;6144870;28;97328;-61
2021/08/28 11:14:40;;;;;;;;;2.20;2.20;;;;;32.30;23.72;98574.47;6142869;28;97209;-60
2021/08/28 11:17:47;;;;;;;;;3.00;3.00;;;;;31.98;23.71;98546.00;6152512;28;97021;-60
2021/08/28 11:20:51;;;;;;;;;2.00;2.00;;;;;31.97;23.31;98560.28;6156546;28;97127;-61
2021/08/28 11:23:55;;;;;;;;;2.00;2.00;;;;;31.69;24.35;98578.13;6156386;28;97342;-59
2021/08/28 11:27:04;;;;;;;;;3.00;3.00;;;;;31.23;24.38;98582.69;6154399;28;98996;-60
2021/08/28 11:30:10;;;;;;;;;3.00;3.00;;;;;30.93;25.80;98579.66;6165501;28;97461;-60
2021/08/28 11:33:22;;;;;;;;;3.00;2.00;;;;;30.76;26.61;98577.25;6154243;28;97455;-61
2021/08/28 11:36:26;;;;;;;;;3.00;3.00;;;;;30.41;25.52;98579.16;6143768;28;97249;-59
2021/08/28 11:39:29;;;;;;;;;2.40;2.40;;;;;30.05;27.30;98581.06;6161667;28;97852;-59
2021/08/28 11:42:34;;;;;;;;;2.00;2.00;;;;;29.52;27.39;98564.84;6161037;28;96833;-58
2021/08/28 11:45:40;;;;;;;;;3.00;2.00;;;;;29.19;27.99;98574.22;6126894;28;97720;-58
2021/08/28 11:48:46;;;;;;;;;2.00;2.00;;;;;29.03;28.62;98578.88;6158659;28;98323;-60
2021/08/28 11:51:51;;;;;;;;;3.00;3.00;;;;;28.86;28.06;98584.69;6154904;28;97133;-59
2021/08/28 11:54:54;;;;;;;;;2.00;2.00;;;;;28.66;29.34;98583.66;6116867;28;97552;-60
2021/08/28 11:58:07;;;;;;;;;3.00;3.00;;;;;28.55;27.91;98578.91;6144701;28;97811;-59
2021/08/28 12:01:11;;;;;;;;;3.00;3.00;;;;;28.50;28.56;98577.19;6142516;28;96969;-59
2021/08/28 12:04:19;;;;;;;;;3.00;3.00;;;;;28.42;29.61;98578.13;6153076;28;97522;-59
2021/08/28 12:07:27;;;;;;;;;4.00;4.00;;;;;28.26;28.78;98577.19;6158730;28;97177;-59
2021/08/28 12:10:31;;;;;;;;;3.00;3.00;;;;;28.16;29.59;98570.13;6159291;28;97391;-58
2021/08/28 12:13:48;;;;;;;;;3.00;3.00;;;;;28.37;29.33;98575.56;6160372;28;98016;-59
2021/08/28 12:16:51;;;;;;;;;2.80;2.80;;;;;28.28;28.90;98584.00;6156828;28;97597;-58
2021/08/28 12:19:59;;;;;;;;;4.00;4.00;;;;;28.10;29.68;98579.78;6154337;28;97486;-60
2021/08/28 12:23:03;;;;;;;;;4.00;4.00;;;;;27.95;29.21;98581.25;6149712;28;97800;-60
2021/08/28 12:26:14;;;;;;;;;3.00;2.60;;;;;27.91;28.79;98579.50;6151738;28;97830;-60
2021/08/28 12:29:24;;;;;;;;;3.50;3.50;;;;;27.85;28.11;98580.91;6140065;28;96738;-60
2021/08/28 12:32:27;;;;;;;;;4.00;4.00;;;;;27.87;29.41;98579.41;6144340;28;97451;-60
2021/08/28 12:35:30;;;;;;;;;3.20;3.20;;;;;27.87;28.63;98578.59;6164254;28;96826;-61
2021/08/28 12:38:34;;;;;;;;;3.00;2.00;;;;;27.82;27.25;98573.25;6163699;28;97453;-60
2021/08/28 12:41:39;;;;;;;;;3.40;3.00;;;;;27.90;29.40;98577.91;6144959;28;97793;-58
2021/08/28 12:44:46;;;;;;;;;2.00;2.00;;;;;27.95;29.16;98575.72;6139071;28;96624;-60
2021/08/28 12:47:50;;;;;;;;;3.00;3.00;;;;;28.06;29.97;98573.31;6162613;28;97111;-59
2021/08/28 12:51:09;;;;;;;;;4.00;4.00;;;;;28.15;28.85;98565.72;6163145;28;97045;-59
2021/08/28 12:54:18;;;;;;;;;4.00;4.00;;;;;28.32;29.64;98564.72;6145039;28;97558;-60
2021/08/28 12:57:24;;;;;;;;;4.00;3.00;;;;;28.31;29.29;98552.00;6163335;28;96702;-60
2021/08/28 13:00:32;;;;;;;;;4.00;4.00;;;;;28.20;28.22;98553.63;6164733;28;97451;-58
2021/08/28 13:03:39;;;;;;;;;4.00;3.75;;;;;28.65;28.45;98551.50;6162790;28;97475;-60
2021/08/28 13:06:42;;;;;;;;;2.40;2.40;;;;;28.72;26.74;98545.41;6161132;28;96706;-60
2021/08/28 13:09:51;;;;;;;;;3.00;3.00;;;;;28.72;27.58;98548.19;6162328;28;97580;-60
2021/08/28 13:13:02;;;;;;;;;2.00;2.00;;;;;28.57;27.81;98551.66;6161779;28;98014;-60
2021/08/28 13:16:18;;;;;;;;;3.00;3.00;;;;;28.37;26.70;98550.63;6161835;28;96507;-59
2021/08/28 13:19:21;;;;;;;;;2.40;2.40;;;;;28.22;26.67;98551.31;6161136;28;99996;-58
2021/08/28 13:22:25;;;;;;;;;2.00;2.00;;;;;28.23;27.33;98547.38;6148838;28;97570;-60
2021/08/28 13:25:31;;;;;;;;;4.00;3.00;;;;;28.28;28.43;98539.66;6162281;28;97601;-59
2021/08/28 13:28:42;;;;;;;;;3.00;2.00;;;;;28.28;28.34;98534.09;6162676;28;97432;-61
2021/08/28 13:31:47;;;;;;;;;2.00;2.00;;;;;28.22;28.19;98535.47;6161363;28;97525;-59
2021/08/28 13:34:52;;;;;;;;;2.00;2.00;;;;;28.05;28.93;98529.34;6163156;28;97091;-60
2021/08/28 13:37:55;;;;;;;;;2.00;2.00;;;;;27.85;28.93;98518.00;6160432;28;97073;-60
2021/08/28 13:40:58;;;;;;;;;2.60;2.40;;;;;27.70;27.80;98521.44;6161503;28;98199;-60
2021/08/28 13:44:02;;;;;;;;;2.00;2.00;;;;;27.38;28.61;98511.13;6145155;28;96676;-60
2021/08/28 13:47:07;;;;;;;;;2.20;2.00;;;;;27.29;29.21;98527.03;6161662;28;97958;-59
2021/08/28 13:50:10;;;;;;;;;2.00;2.00;;;;;27.23;29.43;98522.84;6144295;28;96864;-61
2021/08/28 13:53:14;;;;;;;;;2.60;2.60;;;;;27.28;30.36;98512.38;6162273;28;96798;-59
2021/08/28 13:56:18;;;;;;;;;2.25;2.00;;;;;27.25;29.85;98512.25;6160279;28;96744;-60
2021/08/28 13:59:21;;;;;;;;;2.00;1.80;;;;;27.19;29.86;98513.59;6150203;28;98580;-61
2021/08/28 14:02:26;;;;;;;;;2.00;2.00;;;;;27.30;30.05;98515.63;6154925;28;97929;-59
2021/08/28 14:05:30;;;;;;;;;2.20;2.20;;;;;27.45;29.36;98523.28;6161779;28;96680;-60
2021/08/28 14:08:34;;;;;;;;;3.00;3.00;;;;;27.47;29.20;98520.16;6162965;28;97889;-61
2021/08/28 14:11:37;;;;;;;;;2.00;2.00;;;;;27.56;29.76;98523.72;6160255;28;96796;-60
2021/08/28 14:14:40;;;;;;;;;2.00;2.00;;;;;27.74;30.82;98518.78;6160705;28;97540;-60
2021/08/28 14:17:45;;;;;;;;;2.40;2.40;;;;;27.93;28.56;98522.63;6162013;28;97811;-61
2021/08/28 14:20:48;;;;;;;;;4.25;4.00;;;;;28.22;29.39;98523.59;6161419;28;96704;-61
2021/08/28 14:23:53;;;;;;;;;3.00;3.00;;;;;28.11;28.34;98530.69;6160289;28;97339;-59
2021/08/28 14:26:56;;;;;;;;;3.00;3.00;;;;;28.12;29.53;98530.41;6138456;28;98102;-61
2021/08/28 14:29:59;;;;;;;;;2.00;2.00;;;;;28.34;28.30;98529.16;6160689;28;97531;-62
2021/08/28 14:33:04;;;;;;;;;3.00;3.00;;;;;28.61;29.17;98522.06;6157201;28;97366;-60
2021/08/28 14:36:10;;;;;;;;;6.00;5.00;;;;;28.57;27.86;98494.22;6151358;28;99326;-59
2021/08/28 14:39:13;;;;;;;;;4.00;3.25;;;;;29.01;28.73;98527.66;6162717;28;97464;-60
2021/08/28 14:42:16;;;;;;;;;3.00;2.00;;;;;29.10;27.36;98531.91;6141163;28;97387;-59
2021/08/28 14:45:20;;;;;;;;;2.00;2.00;;;;;29.03;26.96;98525.34;6157010;28;96958;-59
2021/08/28 14:48:24;;;;;;;;;2.00;2.00;;;;;28.83;28.27;98519.59;6144894;28;97467;-60
2021/08/28 14:51:28;;;;;;;;;2.00;2.00;;;;;28.73;27.96;98519.31;6161996;28;97381;-61
2021/08/28 14:54:31;;;;;;;;;3.00;3.00;;;;;28.75;27.94;98508.66;6162034;28;97174;-61
2021/08/28 14:57:34;;;;;;;;;1.00;1.00;;;;;28.72;28.12;98514.91;6162210;28;97280;-60
2021/08/28 15:00:37;;;;;;;;;2.00;2.00;;;;;28.77;28.17;98523.00;6161747;28;98559;-60
2021/08/28 15:03:43;;;;;;;;;3.00;3.00;;;;;28.78;28.43;98525.38;6164313;28;98476;-60
2021/08/28 15:06:46;;;;;;;;;3.00;3.00;;;;;28.78;28.01;98521.84;6162892;28;97690;-60
2021/08/28 15:09:51;;;;;;;;;2.60;2.60;;;;;28.70;27.70;98514.41;6149746;28;97598;-60
2021/08/28 15:12:54;;;;;;;;;2.40;2.40;;;;;28.64;27.54;98519.38;6162295;28;97226;-60
2021/08/28 15:15:58;;;;;;;;;3.00;3.00;;;;;28.54;27.91;98521.84;6162864;28;97132;-60
2021/08/28 15:19:03;;;;;;;;;2.75;2.00;;;;;28.22;27.95;98515.28;6159136;28;97105;-61
2021/08/28 15:22:06;;;;;;;;;2.00;2.00;;;;;28.08;28.63;98512.81;6163028;28;97683;-61
2021/08/28 15:25:11;;;;;;;;;2.40;2.40;;;;;27.93;28.73;98521.81;6162279;28;96534;-59
2021/08/28 15:28:14;;;;;;;;;3.00;3.00;;;;;27.68;29.48;98511.81;6163244;28;97600;-59
2021/08/28 15:31:18;;;;;;;;;3.00;3.00;;;;;27.54;29.34;98512.97;6161588;28;97517;-59
2021/08/28 15:34:22;;;;;;;;;3.40;3.40;;;;;27.46;29.38;98516.59;6162484;28;98055;-59
2021/08/28 15:37:25;;;;;;;;;1.00;1.00;;;;;27.26;29.12;98503.63;6161187;28;97213;-60
2021/08/28 15:40:29;;;;;;;;;3.00;3.00;;;;;27.23;28.97;98507.03;6161583;28;97524;-61
2021/08/28 15:43:33;;;;;;;;;2.00;2.00;;;;;27.08;29.19;98499.38;6129317;28;97538;-61
2021/08/28 15:46:37;;;;;;;;;1.00;1.00;;;;;27.01;29.63;98513.78;6156353;28;96435;-62
2021/08/28 15:49:42;;;;;;;;;3.00;3.00;;;;;27.03;29.36;98510.66;6147209;28;97083;-60
2021/08/28 15:52:46;;;;;;;;;3.00;3.00;;;;;26.89;29.40;98513.69;6143867;28;96969;-61
2021/08/28 15:55:51;;;;;;;;;4.00;4.00;;;;;26.79;29.94;98521.56;6141679;28;96684;-60
2021/08/28 15:58:54;;;;;;;;;3.00;3.00;;;;;26.72;30.41;98508.28;6144130;28;96730;-60
2021/08/28 16:01:57;;;;;;;;;4.00;3.00;;;;;26.67;30.23;98517.59;6128400;28;97825;-59
2021/08/28 16:05:06;;;;;;;;;4.00;4.00;;;;;26.62;30.03;98520.56;6142840;28;96800;-60
2021/08/28 16:08:09;;;;;;;;;2.00;2.00;;;;;26.57;30.90;98517.16;6141861;28;97421;-60
2021/08/28 16:11:16;;;;;;;;;3.00;3.00;;;;;26.50;31.60;98519.63;6155972;28;97685;-60
2021/08/28 16:14:19;;;;;;;;;2.20;1.80;;;;;26.48;30.90;98517.22;6142643;28;97282;-59
2021/08/28 16:17:22;;;;;;;;;2.00;2.00;;;;;26.41;30.80;98514.16;6144067;28;97353;-60
2021/08/28 16:20:27;;;;;;;;;4.00;4.00;;;;;26.36;31.05;98514.34;6141642;28;97449;-59
2021/08/28 16:23:30;;;;;;;;;5.40;5.00;;;;;26.20;32.56;98521.56;6144890;28;96681;-61
2021/08/28 16:26:34;;;;;;;;;5.50;5.50;;;;;25.96;34.12;98516.63;6151133;28;97343;-59
2021/08/28 16:29:38;;;;;;;;;7.00;6.40;;;;;25.90;35.34;98523.50;6140217;28;97508;-61
2021/08/28 16:32:41;;;;;;;;;8.00;7.60;;;;;25.67;35.70;98511.06;6143635;28;98775;-61
2021/08/28 16:35:47;;;;;;;;;8.00;8.00;;;;;25.44;36.76;98504.94;6147513;28;97520;-59
2021/08/28 16:38:50;;;;;;;;;8.00;6.60;;;;;25.34;36.88;98506.09;6130203;28;96741;-60
2021/08/28 16:41:53;;;;;;;;;12.00;10.60;;;;;25.22;37.46;98508.69;6137210;28;96977;-61
2021/08/28 16:44:56;;;;;;;;;10.00;9.80;;;;;25.24;38.59;98511.13;6134353;28;97408;-60
2021/08/28 16:48:00;;;;;;;;;10.00;10.00;;;;;25.20;38.43;98505.47;6140994;28;97984;-61
2021/08/28 16:51:05;;;;;;;;;12.00;10.00;;;;;25.12;38.62;98498.00;6132415;28;97670;-60
2021/08/28 16:54:09;;;;;;;;;15.00;13.00;;;;;25.07;37.79;98506.44;6138741;28;97380;-60
2021/08/28 16:57:13;;;;;;;;;13.20;12.00;;;;;24.97;38.61;98504.03;6131700;28;96818;-61
2021/08/28 17:00:17;;;;;;;;;13.00;13.00;;;;;24.78;39.08;98484.19;6138605;28;96625;-59
2021/08/28 17:03:20;;;;;;;;;16.00;15.00;;;;;24.86;39.29;98505.44;6140682;28;97397;-61
2021/08/28 17:06:25;;;;;;;;;14.00;12.00;;;;;24.78;40.02;98501.53;6140902;28;97025;-59
2021/08/28 17:09:28;;;;;;;;;15.50;15.50;;;;;24.76;40.54;98514.03;6139492;28;97477;-60
2021/08/28 17:12:32;;;;;;;;;14.00;12.00;;;;;24.59;40.57;98510.13;6140146;28;97478;-59
2021/08/28 17:15:35;;;;;;;;;10.00;9.00;;;;;24.44;40.83;98507.81;6134549;28;97468;-62
2021/08/28 17:18:39;;;;;;;;;9.00;8.00;;;;;24.43;40.41;98508.16;6140652;28;97505;-59
2021/08/28 17:21:43;;;;;;;;;11.00;10.40;;;;;24.42;39.87;98515.63;6138632;28;98190;-62
2021/08/28 17:24:47;;;;;;;;;13.50;11.00;;;;;24.37;41.06;98518.53;6139997;28;96691;-61
2021/08/28 17:27:50;;;;;;;;;10.00;9.25;;;;;24.25;40.93;98523.00;6140150;28;97023;-60
2021/08/28 17:30:53;;;;;;;;;11.00;10.00;;;;;24.17;42.19;98525.44;6125872;28;96837;-61
2021/08/28 17:33:57;;;;;;;;;12.50;11.00;;;;;24.05;42.94;98533.44;6139453;28;98081;-60
2021/08/28 17:37:01;;;;;;;;;11.75;10.00;;;;;23.96;44.43;98529.03;6139387;28;97610;-61
2021/08/28 17:40:06;;;;;;;;;11.00;10.00;;;;;23.66;43.95;98511.41;6122323;28;96768;-60
2021/08/28 17:43:10;;;;;;;;;12.00;11.50;;;;;23.69;43.57;98528.13;6128951;28;97461;-60
2021/08/28 17:46:13;;;;;;;;;13.00;12.00;;;;;23.60;44.03;98526.47;6138631;28;96900;-61
2021/08/28 17:49:16;;;;;;;;;13.60;12.60;;;;;23.52;44.21;98533.53;6140388;28;97295;-59
2021/08/28 17:52:21;;;;;;;;;13.20;11.80;;;;;23.45;44.71;98526.84;6140362;28;96587;-60
2021/08/28 17:55:24;;;;;;;;;10.40;10.00;;;;;23.35;44.99;98529.81;6139817;28;97415;-59
2021/08/28 17:58:27;;;;;;;;;10.50;10.50;;;;;23.27;45.57;98531.38;6121545;28;97396;-60
2021/08/28 18:01:31;;;;;;;;;27.20;24.00;;;;;23.10;46.41;98534.81;6139475;28;97191;-61
2021/08/28 18:04:34;;;;;;;;;25.60;23.00;;;;;22.89;46.67;98536.44;6139429;28;96741;-59
2021/08/28 18:07:39;;;;;;;;;25.00;23.40;;;;;22.76;46.47;98538.09;6121324;28;97419;-61
2021/08/28 18:10:42;;;;;;;;;26.40;23.60;;;;;22.68;47.01;98543.47;6135119;28;97147;-61
2021/08/28 18:13:46;;;;;;;;;24.40;22.60;;;;;22.54;46.69;98548.19;6135861;28;97524;-60
2021/08/28 18:16:50;;;;;;;;;19.00;19.00;;;;;22.45;47.09;98554.41;6135387;28;97475;-61
2021/08/28 18:19:54;;;;;;;;;19.20;17.00;;;;;22.36;47.00;98550.75;6137389;28;98123;-62
2021/08/28 18:23:01;;;;;;;;;17.00;16.00;;;;;22.31;46.68;98559.09;6138695;28;97488;-59
2021/08/28 18:26:04;;;;;;;;;17.40;15.00;;;;;22.26;46.92;98555.63;6133571;28;96755;-59
2021/08/28 18:29:08;;;;;;;;;18.50;17.25;;;;;22.24;46.72;98558.69;6139361;28;96704;-58
2021/08/28 18:32:11;;;;;;;;;18.00;17.00;;;;;22.18;46.89;98551.69;6128560;28;96475;-59
2021/08/28 18:35:15;;;;;;;;;16.40;15.00;;;;;22.21;47.36;98564.78;6124937;28;98042;-59
2021/08/28 18:38:20;;;;;;;;;21.00;20.00;;;;;22.13;46.83;98550.97;6138578;28;97135;-59
2021/08/28 18:41:23;;;;;;;;;24.25;23.00;;;;;22.21;46.81;98562.06;6145143;28;96837;-59
2021/08/28 18:44:27;;;;;;;;;23.40;21.20;;;;;22.20;47.74;98573.31;6162564;28;97236;-60
2021/08/28 18:47:30;;;;;;;;;21.75;19.75;;;;;22.20;47.18;98568.66;6147614;28;97816;-62
2021/08/28 18:50:34;;;;;;;;;22.50;21.50;;;;;22.00;47.42;98538.84;6156775;28;97179;-60
2021/08/28 18:53:39;;;;;;;;;20.25;19.25;;;;;22.19;47.56;98561.53;6161668;28;98017;-60
2021/08/28 18:56:42;;;;;;;;;21.00;20.00;;;;;22.17;47.84;98560.22;6160481;28;97492;-61
2021/08/28 18:59:45;;;;;;;;;22.00;20.50;;;;;22.17;48.06;98557.47;6160211;28;97460;-62
2021/08/28 19:02:49;;;;;;;;;23.00;21.40;;;;;22.10;47.38;98562.53;6159579;28;96684;-62
2021/08/28 19:05:54;;;;;;;;;21.00;19.40;;;;;22.11;47.15;98570.50;6158012;28;98166;-61
2021/08/28 19:09:18;;;;;;;;;17.20;16.20;;;;;22.14;47.86;98571.81;6160353;28;97170;-61
2021/08/28 19:12:22;;;;;;;;;19.00;18.40;;;;;22.06;47.73;98578.00;6141638;28;99707;-61
2021/08/28 19:15:25;;;;;;;;;16.20;15.20;;;;;21.92;47.97;98572.47;6159742;28;96847;-62